Pedro Avelino, Brazil
Current Conditions -  °F | °C
As of 4:00 PM on Friday 21 Nov 2014 (Local Time) from SBNT Reporting Station
Scattered Clouds Scattered Clouds  
Wind Chill: 82°   Ceiling: Unl
Heat Index: 85°   Visibility: 6mi
Dew Point: 68°   Wind: 20mph
Humidity: 62%   Direction: 130°SE
Pressure: 29.85"   Gusts: NA
Location:  5.52°S, 36.39°W
Report Text: SBNT 211900Z 13017KT 9999 SCT025 28/20 Q1011
Loading
Personal Weather Stations






























Interactive Weather Map New forecast layout! Learn more

10-Day Weather Forecast

Advertisements
Track Severe Weather on mobile